sensor_id;sensor_type;location;lat;lon;timestamp;P1;durP1;ratioP1;P2;durP2;ratioP2
6852;SDS011;3465;42.144;24.722;2023-06-22T00:00:56;16.60;;;10.80;;
6852;SDS011;3465;42.144;24.722;2023-06-22T00:03:23;15.00;;;11.07;;
6852;SDS011;3465;42.144;24.722;2023-06-22T00:05:49;14.65;;;9.23;;
6852;SDS011;3465;42.144;24.722;2023-06-22T00:08:15;13.70;;;9.13;;
6852;SDS011;3465;42.144;24.722;2023-06-22T00:10:41;10.07;;;8.52;;
6852;SDS011;3465;42.144;24.722;2023-06-22T00:13:07;12.80;;;8.57;;
6852;SDS011;3465;42.144;24.722;2023-06-22T00:15:34;10.85;;;8.52;;
6852;SDS011;3465;42.144;24.722;2023-06-22T00:17:59;15.43;;;8.77;;
6852;SDS011;3465;42.144;24.722;2023-06-22T00:20:26;13.52;;;8.32;;
6852;SDS011;3465;42.144;24.722;2023-06-22T00:22:55;12.10;;;8.27;;
6852;SDS011;3465;42.144;24.722;2023-06-22T00:25:21;13.13;;;7.88;;
6852;SDS011;3465;42.144;24.722;2023-06-22T00:27:47;13.75;;;8.90;;
6852;SDS011;3465;42.144;24.722;2023-06-22T00:30:13;10.18;;;8.30;;
6852;SDS011;3465;42.144;24.722;2023-06-22T00:32:39;14.55;;;8.45;;
6852;SDS011;3465;42.144;24.722;2023-06-22T00:35:04;15.68;;;8.50;;
6852;SDS011;3465;42.144;24.722;2023-06-22T00:37:30;12.98;;;7.90;;
6852;SDS011;3465;42.144;24.722;2023-06-22T00:39:55;13.27;;;7.95;;
6852;SDS011;3465;42.144;24.722;2023-06-22T00:42:21;12.07;;;8.82;;
6852;SDS011;3465;42.144;24.722;2023-06-22T00:44:47;12.00;;;9.10;;
6852;SDS011;3465;42.144;24.722;2023-06-22T00:47:13;13.57;;;9.05;;
6852;SDS011;3465;42.144;24.722;2023-06-22T00:49:41;13.65;;;9.43;;
6852;SDS011;3465;42.144;24.722;2023-06-22T00:52:07;12.32;;;8.20;;
6852;SDS011;3465;42.144;24.722;2023-06-22T00:54:42;12.02;;;8.10;;
6852;SDS011;3465;42.144;24.722;2023-06-22T00:57:14;12.45;;;8.38;;
6852;SDS011;3465;42.144;24.722;2023-06-22T00:59:43;11.80;;;8.65;;
6852;SDS011;3465;42.144;24.722;2023-06-22T01:02:09;14.98;;;9.35;;
6852;SDS011;3465;42.144;24.722;2023-06-22T01:04:36;13.95;;;9.30;;
6852;SDS011;3465;42.144;24.722;2023-06-22T01:09:54;35.42;;;12.93;;
6852;SDS011;3465;42.144;24.722;2023-06-22T01:12:34;42.40;;;13.00;;
6852;SDS011;3465;42.144;24.722;2023-06-22T01:18:33;30.45;;;11.90;;
6852;SDS011;3465;42.144;24.722;2023-06-22T01:21:05;18.52;;;11.10;;
6852;SDS011;3465;42.144;24.722;2023-06-22T01:28:55;13.75;;;10.40;;
6852;SDS011;3465;42.144;24.722;2023-06-22T01:31:24;19.27;;;10.68;;
6852;SDS011;3465;42.144;24.722;2023-06-22T01:34:02;16.48;;;9.65;;
6852;SDS011;3465;42.144;24.722;2023-06-22T01:36:30;13.68;;;10.18;;
6852;SDS011;3465;42.144;24.722;2023-06-22T01:38:58;13.65;;;9.18;;
6852;SDS011;3465;42.144;24.722;2023-06-22T01:41:25;11.93;;;9.27;;
6852;SDS011;3465;42.144;24.722;2023-06-22T01:43:54;21.23;;;9.98;;
6852;SDS011;3465;42.144;24.722;2023-06-22T01:46:20;13.32;;;10.00;;
6852;SDS011;3465;42.144;24.722;2023-06-22T01:48:46;18.52;;;10.27;;
6852;SDS011;3465;42.144;24.722;2023-06-22T01:51:12;15.63;;;9.43;;
6852;SDS011;3465;42.144;24.722;2023-06-22T01:53:38;11.77;;;8.60;;
6852;SDS011;3465;42.144;24.722;2023-06-22T01:56:04;12.35;;;8.93;;
6852;SDS011;3465;42.144;24.722;2023-06-22T01:58:30;16.02;;;10.05;;
6852;SDS011;3465;42.144;24.722;2023-06-22T02:00:58;14.73;;;9.23;;
6852;SDS011;3465;42.144;24.722;2023-06-22T02:03:40;15.45;;;9.63;;
6852;SDS011;3465;42.144;24.722;2023-06-22T02:06:20;14.50;;;9.70;;
6852;SDS011;3465;42.144;24.722;2023-06-22T02:08:53;15.68;;;10.38;;
6852;SDS011;3465;42.144;24.722;2023-06-22T02:11:22;12.68;;;9.35;;
6852;SDS011;3465;42.144;24.722;2023-06-22T02:13:52;16.38;;;11.10;;
6852;SDS011;3465;42.144;24.722;2023-06-22T02:16:18;15.95;;;10.90;;
6852;SDS011;3465;42.144;24.722;2023-06-22T02:18:50;18.77;;;11.48;;
6852;SDS011;3465;42.144;24.722;2023-06-22T02:21:17;19.08;;;11.50;;
6852;SDS011;3465;42.144;24.722;2023-06-22T02:23:43;15.38;;;11.00;;
6852;SDS011;3465;42.144;24.722;2023-06-22T02:26:08;18.88;;;11.45;;
6852;SDS011;3465;42.144;24.722;2023-06-22T02:28:34;15.60;;;11.45;;
6852;SDS011;3465;42.144;24.722;2023-06-22T02:30:59;14.38;;;10.60;;
6852;SDS011;3465;42.144;24.722;2023-06-22T02:33:24;16.20;;;11.10;;
6852;SDS011;3465;42.144;24.722;2023-06-22T02:35:50;15.93;;;10.80;;
6852;SDS011;3465;42.144;24.722;2023-06-22T02:38:15;19.20;;;11.20;;
6852;SDS011;3465;42.144;24.722;2023-06-22T02:40:42;13.85;;;11.32;;
6852;SDS011;3465;42.144;24.722;2023-06-22T02:43:07;15.68;;;11.20;;
6852;SDS011;3465;42.144;24.722;2023-06-22T02:45:33;13.60;;;11.10;;
6852;SDS011;3465;42.144;24.722;2023-06-22T02:47:58;19.90;;;12.35;;
6852;SDS011;3465;42.144;24.722;2023-06-22T02:50:24;15.00;;;11.50;;
6852;SDS011;3465;42.144;24.722;2023-06-22T02:52:49;14.90;;;11.10;;
6852;SDS011;3465;42.144;24.722;2023-06-22T02:55:15;18.35;;;11.57;;
6852;SDS011;3465;42.144;24.722;2023-06-22T02:57:41;16.17;;;11.02;;
6852;SDS011;3465;42.144;24.722;2023-06-22T03:00:09;13.82;;;11.05;;
6852;SDS011;3465;42.144;24.722;2023-06-22T03:02:45;15.07;;;10.68;;
6852;SDS011;3465;42.144;24.722;2023-06-22T03:05:12;14.30;;;10.23;;
6852;SDS011;3465;42.144;24.722;2023-06-22T03:07:46;14.93;;;10.15;;
6852;SDS011;3465;42.144;24.722;2023-06-22T03:10:12;15.50;;;10.55;;
6852;SDS011;3465;42.144;24.722;2023-06-22T03:12:38;12.10;;;9.00;;
6852;SDS011;3465;42.144;24.722;2023-06-22T03:15:05;11.25;;;8.82;;
6852;SDS011;3465;42.144;24.722;2023-06-22T03:17:39;17.02;;;9.07;;
6852;SDS011;3465;42.144;24.722;2023-06-22T03:20:06;12.75;;;9.20;;
6852;SDS011;3465;42.144;24.722;2023-06-22T03:22:37;12.30;;;8.57;;
6852;SDS011;3465;42.144;24.722;2023-06-22T03:25:06;11.07;;;8.90;;
6852;SDS011;3465;42.144;24.722;2023-06-22T03:27:35;12.18;;;8.60;;
6852;SDS011;3465;42.144;24.722;2023-06-22T03:30:01;12.32;;;8.75;;
6852;SDS011;3465;42.144;24.722;2023-06-22T03:32:26;12.55;;;9.48;;
6852;SDS011;3465;42.144;24.722;2023-06-22T03:34:53;17.58;;;9.07;;
6852;SDS011;3465;42.144;24.722;2023-06-22T03:37:18;14.95;;;8.90;;
6852;SDS011;3465;42.144;24.722;2023-06-22T03:39:44;16.98;;;9.88;;
6852;SDS011;3465;42.144;24.722;2023-06-22T03:42:09;16.27;;;10.07;;
6852;SDS011;3465;42.144;24.722;2023-06-22T03:44:35;17.45;;;10.27;;
6852;SDS011;3465;42.144;24.722;2023-06-22T03:47:01;14.48;;;9.95;;
6852;SDS011;3465;42.144;24.722;2023-06-22T03:49:29;20.02;;;10.43;;
6852;SDS011;3465;42.144;24.722;2023-06-22T03:51:54;17.92;;;9.85;;
6852;SDS011;3465;42.144;24.722;2023-06-22T03:54:19;20.90;;;10.05;;
6852;SDS011;3465;42.144;24.722;2023-06-22T03:56:45;18.63;;;10.02;;
6852;SDS011;3465;42.144;24.722;2023-06-22T03:59:10;23.30;;;10.60;;
6852;SDS011;3465;42.144;24.722;2023-06-22T04:01:36;19.75;;;10.90;;
6852;SDS011;3465;42.144;24.722;2023-06-22T04:04:01;21.60;;;11.05;;
6852;SDS011;3465;42.144;24.722;2023-06-22T04:06:27;18.55;;;11.50;;
6852;SDS011;3465;42.144;24.722;2023-06-22T04:08:52;17.88;;;10.77;;
6852;SDS011;3465;42.144;24.722;2023-06-22T04:11:18;22.42;;;10.48;;
6852;SDS011;3465;42.144;24.722;2023-06-22T04:13:43;22.80;;;10.82;;
6852;SDS011;3465;42.144;24.722;2023-06-22T04:16:09;30.85;;;11.27;;
6852;SDS011;3465;42.144;24.722;2023-06-22T04:18:34;21.02;;;11.45;;
6852;SDS011;3465;42.144;24.722;2023-06-22T04:21:00;22.65;;;10.70;;
6852;SDS011;3465;42.144;24.722;2023-06-22T04:23:26;24.52;;;10.55;;
6852;SDS011;3465;42.144;24.722;2023-06-22T04:25:51;15.95;;;10.20;;
6852;SDS011;3465;42.144;24.722;2023-06-22T04:28:17;21.02;;;10.88;;
6852;SDS011;3465;42.144;24.722;2023-06-22T04:30:42;14.70;;;10.02;;
6852;SDS011;3465;42.144;24.722;2023-06-22T04:33:14;21.52;;;10.75;;
6852;SDS011;3465;42.144;24.722;2023-06-22T04:35:40;19.48;;;9.73;;
6852;SDS011;3465;42.144;24.722;2023-06-22T04:38:08;25.20;;;10.63;;
6852;SDS011;3465;42.144;24.722;2023-06-22T04:40:34;19.75;;;10.40;;
6852;SDS011;3465;42.144;24.722;2023-06-22T04:42:59;15.52;;;10.50;;
6852;SDS011;3465;42.144;24.722;2023-06-22T04:45:27;15.95;;;11.05;;
6852;SDS011;3465;42.144;24.722;2023-06-22T04:47:53;14.50;;;9.48;;
6852;SDS011;3465;42.144;24.722;2023-06-22T04:50:18;19.73;;;10.23;;
6852;SDS011;3465;42.144;24.722;2023-06-22T04:52:46;17.55;;;10.35;;
6852;SDS011;3465;42.144;24.722;2023-06-22T04:55:12;25.10;;;10.18;;
6852;SDS011;3465;42.144;24.722;2023-06-22T04:57:37;15.85;;;10.27;;
6852;SDS011;3465;42.144;24.722;2023-06-22T05:00:04;22.15;;;10.25;;
6852;SDS011;3465;42.144;24.722;2023-06-22T05:02:40;15.20;;;10.50;;
6852;SDS011;3465;42.144;24.722;2023-06-22T05:05:06;17.33;;;10.15;;
6852;SDS011;3465;42.144;24.722;2023-06-22T05:07:33;12.50;;;9.50;;
6852;SDS011;3465;42.144;24.722;2023-06-22T05:09:59;15.25;;;9.82;;
6852;SDS011;3465;42.144;24.722;2023-06-22T05:12:25;14.02;;;9.32;;
6852;SDS011;3465;42.144;24.722;2023-06-22T05:14:50;16.48;;;10.57;;
6852;SDS011;3465;42.144;24.722;2023-06-22T05:17:16;17.38;;;9.93;;
6852;SDS011;3465;42.144;24.722;2023-06-22T05:19:44;15.50;;;10.07;;
6852;SDS011;3465;42.144;24.722;2023-06-22T05:22:13;16.98;;;10.07;;
6852;SDS011;3465;42.144;24.722;2023-06-22T05:24:42;18.27;;;10.05;;
6852;SDS011;3465;42.144;24.722;2023-06-22T05:27:08;19.38;;;9.38;;
6852;SDS011;3465;42.144;24.722;2023-06-22T05:29:34;19.95;;;10.65;;
6852;SDS011;3465;42.144;24.722;2023-06-22T05:32:00;14.02;;;9.80;;
6852;SDS011;3465;42.144;24.722;2023-06-22T05:34:26;16.35;;;9.52;;
6852;SDS011;3465;42.144;24.722;2023-06-22T05:36:51;13.38;;;9.00;;
6852;SDS011;3465;42.144;24.722;2023-06-22T05:39:16;16.02;;;8.52;;
6852;SDS011;3465;42.144;24.722;2023-06-22T05:41:42;16.15;;;8.95;;
6852;SDS011;3465;42.144;24.722;2023-06-22T05:44:08;11.07;;;8.60;;
6852;SDS011;3465;42.144;24.722;2023-06-22T05:46:33;12.63;;;7.70;;
6852;SDS011;3465;42.144;24.722;2023-06-22T05:48:59;13.88;;;8.15;;
6852;SDS011;3465;42.144;24.722;2023-06-22T05:51:24;11.23;;;8.82;;
6852;SDS011;3465;42.144;24.722;2023-06-22T05:53:50;32.58;;;8.98;;
6852;SDS011;3465;42.144;24.722;2023-06-22T05:56:16;16.48;;;7.60;;
6852;SDS011;3465;42.144;24.722;2023-06-22T05:58:41;14.73;;;8.25;;
6852;SDS011;3465;42.144;24.722;2023-06-22T06:01:07;11.45;;;8.38;;
6852;SDS011;3465;42.144;24.722;2023-06-22T06:03:34;13.30;;;8.30;;
6852;SDS011;3465;42.144;24.722;2023-06-22T06:05:59;14.48;;;9.30;;
6852;SDS011;3465;42.144;24.722;2023-06-22T06:08:27;12.43;;;7.93;;
6852;SDS011;3465;42.144;24.722;2023-06-22T06:10:52;12.65;;;8.00;;
6852;SDS011;3465;42.144;24.722;2023-06-22T06:13:20;19.13;;;7.90;;
6852;SDS011;3465;42.144;24.722;2023-06-22T06:15:45;15.73;;;7.80;;
6852;SDS011;3465;42.144;24.722;2023-06-22T06:18:11;14.55;;;7.93;;
6852;SDS011;3465;42.144;24.722;2023-06-22T06:20:36;21.83;;;8.63;;
6852;SDS011;3465;42.144;24.722;2023-06-22T06:23:02;11.00;;;7.20;;
6852;SDS011;3465;42.144;24.722;2023-06-22T06:25:27;11.57;;;7.47;;
6852;SDS011;3465;42.144;24.722;2023-06-22T06:27:52;12.55;;;7.53;;
6852;SDS011;3465;42.144;24.722;2023-06-22T06:30:19;9.73;;;7.38;;
6852;SDS011;3465;42.144;24.722;2023-06-22T06:32:45;9.98;;;7.13;;
6852;SDS011;3465;42.144;24.722;2023-06-22T06:35:12;7.75;;;6.80;;
6852;SDS011;3465;42.144;24.722;2023-06-22T06:37:40;13.63;;;7.63;;
6852;SDS011;3465;42.144;24.722;2023-06-22T06:40:08;12.65;;;7.32;;
6852;SDS011;3465;42.144;24.722;2023-06-22T06:42:42;9.35;;;7.07;;
6852;SDS011;3465;42.144;24.722;2023-06-22T06:47:41;14.38;;;7.68;;
6852;SDS011;3465;42.144;24.722;2023-06-22T06:50:07;15.23;;;7.65;;
6852;SDS011;3465;42.144;24.722;2023-06-22T06:52:33;10.57;;;7.35;;
6852;SDS011;3465;42.144;24.722;2023-06-22T06:54:59;20.73;;;7.90;;
6852;SDS011;3465;42.144;24.722;2023-06-22T06:57:25;12.90;;;7.38;;
6852;SDS011;3465;42.144;24.722;2023-06-22T06:59:54;13.27;;;7.13;;
6852;SDS011;3465;42.144;24.722;2023-06-22T07:02:21;8.10;;;6.50;;
6852;SDS011;3465;42.144;24.722;2023-06-22T07:04:47;10.85;;;6.90;;
6852;SDS011;3465;42.144;24.722;2023-06-22T07:07:13;12.73;;;7.10;;
6852;SDS011;3465;42.144;24.722;2023-06-22T07:09:38;12.70;;;6.90;;
6852;SDS011;3465;42.144;24.722;2023-06-22T07:12:04;14.23;;;7.93;;
6852;SDS011;3465;42.144;24.722;2023-06-22T07:14:29;9.50;;;7.13;;
6852;SDS011;3465;42.144;24.722;2023-06-22T07:16:56;9.73;;;6.70;;
6852;SDS011;3465;42.144;24.722;2023-06-22T07:19:25;9.73;;;6.18;;
6852;SDS011;3465;42.144;24.722;2023-06-22T07:21:52;10.90;;;6.38;;
6852;SDS011;3465;42.144;24.722;2023-06-22T07:24:18;9.50;;;6.40;;
6852;SDS011;3465;42.144;24.722;2023-06-22T07:26:45;10.38;;;6.38;;
6852;SDS011;3465;42.144;24.722;2023-06-22T07:29:11;8.00;;;6.28;;
6852;SDS011;3465;42.144;24.722;2023-06-22T07:31:37;8.50;;;5.50;;
6852;SDS011;3465;42.144;24.722;2023-06-22T07:34:02;10.07;;;6.78;;
6852;SDS011;3465;42.144;24.722;2023-06-22T07:36:29;10.18;;;5.65;;
6852;SDS011;3465;42.144;24.722;2023-06-22T07:38:55;7.47;;;5.93;;
6852;SDS011;3465;42.144;24.722;2023-06-22T07:41:20;16.40;;;6.00;;
6852;SDS011;3465;42.144;24.722;2023-06-22T07:43:46;11.85;;;5.68;;
6852;SDS011;3465;42.144;24.722;2023-06-22T07:46:11;7.82;;;5.70;;
6852;SDS011;3465;42.144;24.722;2023-06-22T07:48:37;6.05;;;4.97;;
6852;SDS011;3465;42.144;24.722;2023-06-22T07:51:04;12.13;;;5.35;;
6852;SDS011;3465;42.144;24.722;2023-06-22T07:53:30;12.30;;;5.47;;
6852;SDS011;3465;42.144;24.722;2023-06-22T07:55:56;8.13;;;4.85;;
6852;SDS011;3465;42.144;24.722;2023-06-22T07:58:21;8.90;;;4.63;;
6852;SDS011;3465;42.144;24.722;2023-06-22T08:00:46;5.00;;;4.47;;
6852;SDS011;3465;42.144;24.722;2023-06-22T08:03:13;8.13;;;4.75;;
6852;SDS011;3465;42.144;24.722;2023-06-22T08:05:39;7.25;;;4.68;;
6852;SDS011;3465;42.144;24.722;2023-06-22T08:08:04;6.60;;;4.88;;
6852;SDS011;3465;42.144;24.722;2023-06-22T08:10:30;5.93;;;4.85;;
6852;SDS011;3465;42.144;24.722;2023-06-22T08:12:55;7.15;;;5.05;;
6852;SDS011;3465;42.144;24.722;2023-06-22T08:15:20;11.00;;;5.20;;
6852;SDS011;3465;42.144;24.722;2023-06-22T08:17:47;7.93;;;4.55;;
6852;SDS011;3465;42.144;24.722;2023-06-22T08:20:12;10.30;;;5.90;;
6852;SDS011;3465;42.144;24.722;2023-06-22T08:22:38;5.57;;;4.82;;
6852;SDS011;3465;42.144;24.722;2023-06-22T08:25:04;6.22;;;4.60;;
6852;SDS011;3465;42.144;24.722;2023-06-22T08:27:31;10.23;;;4.80;;
6852;SDS011;3465;42.144;24.722;2023-06-22T08:29:59;9.18;;;5.40;;
6852;SDS011;3465;42.144;24.722;2023-06-22T08:32:26;10.75;;;5.05;;
6852;SDS011;3465;42.144;24.722;2023-06-22T08:34:53;5.85;;;5.10;;
6852;SDS011;3465;42.144;24.722;2023-06-22T08:37:19;14.38;;;5.05;;
6852;SDS011;3465;42.144;24.722;2023-06-22T08:39:45;6.32;;;4.72;;
6852;SDS011;3465;42.144;24.722;2023-06-22T08:42:11;10.38;;;4.70;;
6852;SDS011;3465;42.144;24.722;2023-06-22T08:44:37;6.30;;;4.32;;
6852;SDS011;3465;42.144;24.722;2023-06-22T08:47:02;10.05;;;4.90;;
6852;SDS011;3465;42.144;24.722;2023-06-22T08:49:28;6.53;;;4.45;;
6852;SDS011;3465;42.144;24.722;2023-06-22T08:51:54;9.48;;;4.60;;
6852;SDS011;3465;42.144;24.722;2023-06-22T08:54:21;8.05;;;5.10;;
6852;SDS011;3465;42.144;24.722;2023-06-22T08:56:47;11.50;;;4.70;;
6852;SDS011;3465;42.144;24.722;2023-06-22T08:59:12;8.13;;;4.47;;
6852;SDS011;3465;42.144;24.722;2023-06-22T09:01:38;7.65;;;4.50;;
6852;SDS011;3465;42.144;24.722;2023-06-22T09:04:03;8.18;;;4.68;;
6852;SDS011;3465;42.144;24.722;2023-06-22T09:06:31;6.93;;;4.43;;
6852;SDS011;3465;42.144;24.722;2023-06-22T09:08:56;6.43;;;4.70;;
6852;SDS011;3465;42.144;24.722;2023-06-22T09:11:24;13.57;;;5.10;;
6852;SDS011;3465;42.144;24.722;2023-06-22T09:13:50;10.00;;;5.18;;
6852;SDS011;3465;42.144;24.722;2023-06-22T09:16:17;8.18;;;4.97;;
6852;SDS011;3465;42.144;24.722;2023-06-22T09:18:45;5.72;;;4.63;;
6852;SDS011;3465;42.144;24.722;2023-06-22T09:21:12;5.82;;;4.70;;
6852;SDS011;3465;42.144;24.722;2023-06-22T09:23:38;6.05;;;4.07;;
6852;SDS011;3465;42.144;24.722;2023-06-22T09:26:03;7.80;;;4.38;;
6852;SDS011;3465;42.144;24.722;2023-06-22T09:28:29;5.65;;;4.45;;
6852;SDS011;3465;42.144;24.722;2023-06-22T09:30:54;8.75;;;4.60;;
6852;SDS011;3465;42.144;24.722;2023-06-22T09:33:23;9.85;;;5.15;;
6852;SDS011;3465;42.144;24.722;2023-06-22T09:35:49;6.25;;;4.47;;
6852;SDS011;3465;42.144;24.722;2023-06-22T09:38:15;7.90;;;5.20;;
6852;SDS011;3465;42.144;24.722;2023-06-22T09:40:41;6.85;;;4.30;;
6852;SDS011;3465;42.144;24.722;2023-06-22T09:43:06;5.32;;;4.25;;
6852;SDS011;3465;42.144;24.722;2023-06-22T09:45:32;6.68;;;4.55;;
6852;SDS011;3465;42.144;24.722;2023-06-22T09:47:57;7.80;;;4.30;;
6852;SDS011;3465;42.144;24.722;2023-06-22T09:50:23;5.30;;;4.45;;
6852;SDS011;3465;42.144;24.722;2023-06-22T09:52:48;5.00;;;4.57;;
6852;SDS011;3465;42.144;24.722;2023-06-22T09:55:19;6.32;;;4.85;;
6852;SDS011;3465;42.144;24.722;2023-06-22T09:57:44;7.13;;;5.10;;
6852;SDS011;3465;42.144;24.722;2023-06-22T10:00:10;7.45;;;5.30;;
6852;SDS011;3465;42.144;24.722;2023-06-22T10:02:38;7.20;;;4.78;;
6852;SDS011;3465;42.144;24.722;2023-06-22T10:05:04;6.15;;;4.10;;
6852;SDS011;3465;42.144;24.722;2023-06-22T10:07:30;9.77;;;5.13;;
6852;SDS011;3465;42.144;24.722;2023-06-22T10:09:55;6.38;;;4.80;;
6852;SDS011;3465;42.144;24.722;2023-06-22T10:12:20;10.02;;;7.78;;
6852;SDS011;3465;42.144;24.722;2023-06-22T10:14:46;7.10;;;5.15;;
6852;SDS011;3465;42.144;24.722;2023-06-22T10:17:11;6.32;;;4.63;;
6852;SDS011;3465;42.144;24.722;2023-06-22T10:19:37;7.70;;;5.43;;
6852;SDS011;3465;42.144;24.722;2023-06-22T10:22:04;7.38;;;4.55;;
6852;SDS011;3465;42.144;24.722;2023-06-22T10:24:30;4.75;;;4.25;;
6852;SDS011;3465;42.144;24.722;2023-06-22T10:26:55;7.20;;;4.78;;
6852;SDS011;3465;42.144;24.722;2023-06-22T10:29:21;4.65;;;4.25;;
6852;SDS011;3465;42.144;24.722;2023-06-22T10:31:46;5.18;;;4.68;;
6852;SDS011;3465;42.144;24.722;2023-06-22T10:34:11;5.85;;;4.70;;
6852;SDS011;3465;42.144;24.722;2023-06-22T10:36:38;5.90;;;4.22;;
6852;SDS011;3465;42.144;24.722;2023-06-22T10:39:03;8.20;;;4.32;;
6852;SDS011;3465;42.144;24.722;2023-06-22T10:41:29;6.05;;;4.65;;
6852;SDS011;3465;42.144;24.722;2023-06-22T10:43:55;9.65;;;4.47;;
6852;SDS011;3465;42.144;24.722;2023-06-22T10:46:21;6.43;;;4.15;;
6852;SDS011;3465;42.144;24.722;2023-06-22T10:48:46;4.75;;;4.30;;
6852;SDS011;3465;42.144;24.722;2023-06-22T10:51:12;5.70;;;5.10;;
6852;SDS011;3465;42.144;24.722;2023-06-22T10:53:37;6.38;;;4.85;;
6852;SDS011;3465;42.144;24.722;2023-06-22T10:56:03;5.07;;;4.25;;
6852;SDS011;3465;42.144;24.722;2023-06-22T10:58:28;7.25;;;4.45;;
6852;SDS011;3465;42.144;24.722;2023-06-22T11:00:54;7.32;;;4.60;;
6852;SDS011;3465;42.144;24.722;2023-06-22T11:03:19;6.55;;;5.00;;
6852;SDS011;3465;42.144;24.722;2023-06-22T11:05:45;6.55;;;5.07;;
6852;SDS011;3465;42.144;24.722;2023-06-22T11:08:12;9.75;;;5.05;;
6852;SDS011;3465;42.144;24.722;2023-06-22T11:10:38;5.80;;;5.15;;
6852;SDS011;3465;42.144;24.722;2023-06-22T11:13:03;9.63;;;5.53;;
6852;SDS011;3465;42.144;24.722;2023-06-22T11:15:30;9.93;;;5.75;;
6852;SDS011;3465;42.144;24.722;2023-06-22T11:17:55;5.70;;;5.05;;
6852;SDS011;3465;42.144;24.722;2023-06-22T11:20:21;9.52;;;5.10;;
6852;SDS011;3465;42.144;24.722;2023-06-22T11:22:46;5.53;;;4.57;;
6852;SDS011;3465;42.144;24.722;2023-06-22T11:25:12;5.38;;;4.35;;
6852;SDS011;3465;42.144;24.722;2023-06-22T11:27:37;6.25;;;5.25;;
6852;SDS011;3465;42.144;24.722;2023-06-22T11:30:03;7.38;;;4.72;;
6852;SDS011;3465;42.144;24.722;2023-06-22T11:32:29;8.65;;;5.13;;
6852;SDS011;3465;42.144;24.722;2023-06-22T11:34:54;5.07;;;4.57;;
6852;SDS011;3465;42.144;24.722;2023-06-22T11:37:20;7.95;;;5.05;;
6852;SDS011;3465;42.144;24.722;2023-06-22T11:39:45;5.47;;;4.55;;
6852;SDS011;3465;42.144;24.722;2023-06-22T11:42:11;6.43;;;5.25;;
6852;SDS011;3465;42.144;24.722;2023-06-22T11:44:36;8.55;;;5.32;;
6852;SDS011;3465;42.144;24.722;2023-06-22T11:47:02;8.00;;;5.32;;
6852;SDS011;3465;42.144;24.722;2023-06-22T11:49:29;6.50;;;5.28;;
6852;SDS011;3465;42.144;24.722;2023-06-22T11:51:55;6.10;;;4.88;;
6852;SDS011;3465;42.144;24.722;2023-06-22T11:54:21;6.82;;;5.40;;
6852;SDS011;3465;42.144;24.722;2023-06-22T11:56:46;8.73;;;5.43;;
6852;SDS011;3465;42.144;24.722;2023-06-22T11:59:11;8.02;;;5.22;;
6852;SDS011;3465;42.144;24.722;2023-06-22T12:01:37;6.60;;;5.00;;
6852;SDS011;3465;42.144;24.722;2023-06-22T12:04:02;9.40;;;5.70;;
6852;SDS011;3465;42.144;24.722;2023-06-22T12:06:31;5.47;;;4.97;;
6852;SDS011;3465;42.144;24.722;2023-06-22T12:08:57;8.38;;;4.90;;
6852;SDS011;3465;42.144;24.722;2023-06-22T12:11:23;5.85;;;5.07;;
6852;SDS011;3465;42.144;24.722;2023-06-22T12:13:48;8.57;;;5.32;;
6852;SDS011;3465;42.144;24.722;2023-06-22T12:16:14;8.20;;;5.55;;
6852;SDS011;3465;42.144;24.722;2023-06-22T12:18:39;7.32;;;5.45;;
6852;SDS011;3465;42.144;24.722;2023-06-22T12:21:04;7.55;;;5.32;;
6852;SDS011;3465;42.144;24.722;2023-06-22T12:23:30;7.68;;;5.00;;
6852;SDS011;3465;42.144;24.722;2023-06-22T12:25:55;5.65;;;5.05;;
6852;SDS011;3465;42.144;24.722;2023-06-22T12:28:20;6.40;;;5.07;;
6852;SDS011;3465;42.144;24.722;2023-06-22T12:30:46;5.20;;;4.70;;
6852;SDS011;3465;42.144;24.722;2023-06-22T12:33:11;7.80;;;5.15;;
6852;SDS011;3465;42.144;24.722;2023-06-22T12:35:37;6.80;;;5.40;;
6852;SDS011;3465;42.144;24.722;2023-06-22T12:38:02;8.80;;;5.50;;
6852;SDS011;3465;42.144;24.722;2023-06-22T12:40:28;10.90;;;5.70;;
6852;SDS011;3465;42.144;24.722;2023-06-22T12:42:53;6.25;;;5.53;;
6852;SDS011;3465;42.144;24.722;2023-06-22T12:45:19;6.20;;;5.55;;
6852;SDS011;3465;42.144;24.722;2023-06-22T12:47:46;7.20;;;5.55;;
6852;SDS011;3465;42.144;24.722;2023-06-22T12:50:12;8.32;;;5.80;;
6852;SDS011;3465;42.144;24.722;2023-06-22T12:52:37;8.35;;;5.68;;
6852;SDS011;3465;42.144;24.722;2023-06-22T12:55:06;9.20;;;5.45;;
6852;SDS011;3465;42.144;24.722;2023-06-22T12:57:31;9.00;;;6.05;;
6852;SDS011;3465;42.144;24.722;2023-06-22T12:59:57;9.55;;;5.90;;
6852;SDS011;3465;42.144;24.722;2023-06-22T13:02:23;6.07;;;5.47;;
6852;SDS011;3465;42.144;24.722;2023-06-22T13:04:49;7.55;;;5.90;;
6852;SDS011;3465;42.144;24.722;2023-06-22T13:07:14;9.95;;;5.75;;
6852;SDS011;3465;42.144;24.722;2023-06-22T13:09:39;6.72;;;5.10;;
6852;SDS011;3465;42.144;24.722;2023-06-22T13:12:05;7.13;;;6.10;;
6852;SDS011;3465;42.144;24.722;2023-06-22T13:14:31;8.63;;;5.78;;
6852;SDS011;3465;42.144;24.722;2023-06-22T13:16:56;5.30;;;4.80;;
6852;SDS011;3465;42.144;24.722;2023-06-22T13:19:21;6.82;;;5.57;;
6852;SDS011;3465;42.144;24.722;2023-06-22T13:21:47;9.13;;;5.72;;
6852;SDS011;3465;42.144;24.722;2023-06-22T13:24:12;11.15;;;5.60;;
6852;SDS011;3465;42.144;24.722;2023-06-22T13:26:38;7.22;;;5.30;;
6852;SDS011;3465;42.144;24.722;2023-06-22T13:29:03;8.60;;;5.53;;
6852;SDS011;3465;42.144;24.722;2023-06-22T13:31:29;9.70;;;5.63;;
6852;SDS011;3465;42.144;24.722;2023-06-22T13:33:54;6.35;;;5.63;;
6852;SDS011;3465;42.144;24.722;2023-06-22T13:36:20;7.45;;;5.35;;
6852;SDS011;3465;42.144;24.722;2023-06-22T13:38:48;7.72;;;5.25;;
6852;SDS011;3465;42.144;24.722;2023-06-22T13:41:13;11.15;;;5.57;;
6852;SDS011;3465;42.144;24.722;2023-06-22T13:43:39;7.20;;;5.35;;
6852;SDS011;3465;42.144;24.722;2023-06-22T13:46:04;10.65;;;5.95;;
6852;SDS011;3465;42.144;24.722;2023-06-22T13:48:29;8.48;;;5.38;;
6852;SDS011;3465;42.144;24.722;2023-06-22T13:50:55;8.25;;;5.60;;
6852;SDS011;3465;42.144;24.722;2023-06-22T13:53:20;11.10;;;5.70;;
6852;SDS011;3465;42.144;24.722;2023-06-22T13:55:46;8.90;;;5.55;;
6852;SDS011;3465;42.144;24.722;2023-06-22T13:58:12;9.20;;;5.90;;
6852;SDS011;3465;42.144;24.722;2023-06-22T14:00:38;8.25;;;6.00;;
6852;SDS011;3465;42.144;24.722;2023-06-22T14:03:03;7.68;;;6.25;;
6852;SDS011;3465;42.144;24.722;2023-06-22T14:05:28;8.05;;;6.35;;
6852;SDS011;3465;42.144;24.722;2023-06-22T14:07:54;18.65;;;7.72;;
6852;SDS011;3465;42.144;24.722;2023-06-22T14:10:19;14.77;;;6.15;;
6852;SDS011;3465;42.144;24.722;2023-06-22T14:12:45;13.02;;;7.00;;
6852;SDS011;3465;42.144;24.722;2023-06-22T14:15:10;14.77;;;6.68;;
6852;SDS011;3465;42.144;24.722;2023-06-22T14:17:36;12.70;;;6.75;;
6852;SDS011;3465;42.144;24.722;2023-06-22T14:20:01;12.63;;;6.40;;
6852;SDS011;3465;42.144;24.722;2023-06-22T14:22:28;16.25;;;7.80;;
6852;SDS011;3465;42.144;24.722;2023-06-22T14:24:54;18.35;;;6.78;;
6852;SDS011;3465;42.144;24.722;2023-06-22T14:27:22;14.20;;;6.38;;
6852;SDS011;3465;42.144;24.722;2023-06-22T14:29:48;14.77;;;6.38;;
6852;SDS011;3465;42.144;24.722;2023-06-22T14:32:13;13.45;;;6.63;;
6852;SDS011;3465;42.144;24.722;2023-06-22T14:34:39;12.32;;;7.55;;
6852;SDS011;3465;42.144;24.722;2023-06-22T14:37:07;14.48;;;8.23;;
6852;SDS011;3465;42.144;24.722;2023-06-22T14:39:34;16.40;;;6.70;;
6852;SDS011;3465;42.144;24.722;2023-06-22T14:42:00;12.38;;;6.72;;
6852;SDS011;3465;42.144;24.722;2023-06-22T14:44:26;11.57;;;6.30;;
6852;SDS011;3465;42.144;24.722;2023-06-22T14:46:54;13.50;;;6.07;;
6852;SDS011;3465;42.144;24.722;2023-06-22T14:49:19;11.45;;;7.07;;
6852;SDS011;3465;42.144;24.722;2023-06-22T14:51:44;8.30;;;6.50;;
6852;SDS011;3465;42.144;24.722;2023-06-22T14:54:10;10.85;;;6.22;;
6852;SDS011;3465;42.144;24.722;2023-06-22T14:56:35;10.55;;;6.30;;
6852;SDS011;3465;42.144;24.722;2023-06-22T14:59:01;8.35;;;6.32;;